createdAt,value
2018-12-21T00:00:26.685Z,4.37
2018-12-21T00:02:54.781Z,3.03
2018-12-21T00:05:24.242Z,3.07
2018-12-21T00:07:51.953Z,6.87
2018-12-21T00:10:20.793Z,4.80
2018-12-21T00:12:48.587Z,2.90
2018-12-21T00:15:16.355Z,4.20
2018-12-21T00:17:44.139Z,5.90
2018-12-21T00:20:12.818Z,4.47
2018-12-21T00:22:40.896Z,7.83
2018-12-21T00:25:08.699Z,3.87
2018-12-21T00:27:36.495Z,4.70
2018-12-21T00:30:06.208Z,4.23
2018-12-21T00:32:40.785Z,6.07
2018-12-21T00:35:14.265Z,7.70
2018-12-21T00:37:47.731Z,4.17
2018-12-21T00:40:21.747Z,5.47
2018-12-21T00:42:55.582Z,5.03
2018-12-21T00:45:25.401Z,3.33
2018-12-21T00:47:53.555Z,4.33
2018-12-21T00:50:21.304Z,6.07
2018-12-21T00:52:49.745Z,3.93
2018-12-21T00:55:17.481Z,2.57
2018-12-21T00:57:45.335Z,3.53
2018-12-21T01:00:15.113Z,7.83
2018-12-21T01:02:42.968Z,2.33
2018-12-21T01:05:10.694Z,7.27
2018-12-21T01:07:39.206Z,4.77
2018-12-21T01:10:07.966Z,4.20
2018-12-21T01:12:35.702Z,5.03
2018-12-21T01:15:04.428Z,5.67
2018-12-21T01:17:32.261Z,5.47
2018-12-21T01:19:59.965Z,3.40
2018-12-21T01:22:28.084Z,4.77
2018-12-21T01:24:56.917Z,7.10
2018-12-21T01:27:24.670Z,2.60
2018-12-21T01:29:52.454Z,3.83
2018-12-21T01:32:20.159Z,5.30
2018-12-21T01:34:47.952Z,4.97
2018-12-21T01:37:16.475Z,4.93
2018-12-21T01:39:44.171Z,4.20
2018-12-21T01:42:12.088Z,8.90
2018-12-21T01:44:39.838Z,6.80
2018-12-21T01:47:07.884Z,3.63
2018-12-21T01:49:35.642Z,6.30
2018-12-21T01:52:03.376Z,6.53
2018-12-21T01:54:31.534Z,7.60
2018-12-21T01:56:59.241Z,4.47
2018-12-21T01:59:27.025Z,4.67
2018-12-21T02:01:54.771Z,4.03
2018-12-21T02:04:22.491Z,2.67
2018-12-21T02:06:50.239Z,5.30
2018-12-21T02:09:18.678Z,3.47
2018-12-21T02:11:46.753Z,3.27
2018-12-21T02:14:15.154Z,2.47
2018-12-21T02:16:42.854Z,2.50
2018-12-21T02:19:10.936Z,2.23
2018-12-21T02:21:38.779Z,5.00
2018-12-21T02:24:06.545Z,2.97
2018-12-21T02:26:34.270Z,3.10
2018-12-21T02:29:02.005Z,5.47
2018-12-21T02:31:29.820Z,3.03
2018-12-21T02:33:57.547Z,5.13
2018-12-21T02:36:25.610Z,4.33
2018-12-21T02:38:53.335Z,4.03
2018-12-21T02:41:21.065Z,6.37
2018-12-21T02:43:49.076Z,8.13
2018-12-21T02:46:16.839Z,4.37
2018-12-21T02:48:44.649Z,4.43
2018-12-21T02:51:12.422Z,4.17
2018-12-21T02:53:40.416Z,3.87
2018-12-21T02:56:08.154Z,3.67
2018-12-21T02:58:36.482Z,2.83
2018-12-21T03:01:04.463Z,2.17
2018-12-21T03:03:32.317Z,4.47
2018-12-21T03:06:00.041Z,2.97
2018-12-21T03:08:28.061Z,2.47
2018-12-21T03:10:55.786Z,5.13
2018-12-21T03:13:27.225Z,2.97
2018-12-21T03:15:55.023Z,3.13
2018-12-21T03:18:23.627Z,5.13
2018-12-21T03:20:51.974Z,7.27
2018-12-21T03:23:19.970Z,3.27
2018-12-21T03:25:47.722Z,6.13
2018-12-21T03:28:15.718Z,3.80
2018-12-21T03:30:43.455Z,4.10
2018-12-21T03:33:11.205Z,3.47
2018-12-21T03:35:38.976Z,2.20
2018-12-21T03:38:06.733Z,4.00
2018-12-21T03:40:34.471Z,1.37
2018-12-21T03:43:02.318Z,1.10
2018-12-21T03:45:30.051Z,3.10
2018-12-21T03:47:57.859Z,3.50
2018-12-21T03:50:25.627Z,1.53
2018-12-21T03:52:53.455Z,2.10
2018-12-21T03:55:21.315Z,2.20
2018-12-21T03:57:49.451Z,3.00
2018-12-21T04:00:17.183Z,2.37
2018-12-21T04:02:44.910Z,0.70
2018-12-21T04:05:12.769Z,1.20
2018-12-21T04:07:40.843Z,0.60
2018-12-21T04:10:08.656Z,0.70
2018-12-21T04:12:36.437Z,0.93
2018-12-21T04:15:04.746Z,0.67
2018-12-21T04:17:32.488Z,1.03
2018-12-21T04:20:00.652Z,0.60
2018-12-21T04:22:34.015Z,0.43
2018-12-21T04:24:59.580Z,0.80
2018-12-21T04:27:28.282Z,2.07
2018-12-21T04:29:56.769Z,0.80
2018-12-21T04:32:24.836Z,0.43
2018-12-21T04:34:52.689Z,1.27
2018-12-21T04:37:20.420Z,1.17
2018-12-21T04:39:48.139Z,1.30
2018-12-21T04:42:16.203Z,0.70
2018-12-21T04:45:01.436Z,0.90
2018-12-21T04:47:29.233Z,0.93
2018-12-21T04:49:56.983Z,0.40
2018-12-21T04:52:24.698Z,0.50
2018-12-21T04:54:52.436Z,2.40
2018-12-21T04:57:20.457Z,0.50
2018-12-21T04:59:48.195Z,0.77
2018-12-21T05:02:16.009Z,1.43
2018-12-21T05:04:44.020Z,0.50
2018-12-21T05:07:12.661Z,0.50
2018-12-21T05:09:40.725Z,1.73
2018-12-21T05:12:08.509Z,0.40
2018-12-21T05:14:36.342Z,1.37
2018-12-21T05:17:04.142Z,0.50
2018-12-21T05:19:31.873Z,0.73
2018-12-21T05:21:59.646Z,0.50
2018-12-21T05:24:27.399Z,0.50
2018-12-21T05:26:55.519Z,0.40
2018-12-21T05:29:23.230Z,0.43
2018-12-21T05:31:50.991Z,0.70
2018-12-21T05:34:19.795Z,0.70
2018-12-21T05:36:47.526Z,2.57
2018-12-21T05:39:15.368Z,1.60
2018-12-21T05:41:43.165Z,0.40
2018-12-21T05:44:10.978Z,0.50
2018-12-21T05:46:38.723Z,0.50
2018-12-21T05:49:07.542Z,1.60
2018-12-21T05:51:35.328Z,0.57
2018-12-21T05:54:03.230Z,0.70
2018-12-21T05:56:31.014Z,0.70
2018-12-21T05:58:58.817Z,0.50
2018-12-21T06:01:27.011Z,0.43
2018-12-21T06:03:54.723Z,2.80
2018-12-21T06:06:23.940Z,0.60
2018-12-21T06:08:51.992Z,0.50
2018-12-21T06:11:19.730Z,1.00
2018-12-21T06:13:47.824Z,0.60
2018-12-21T06:16:16.700Z,1.50
2018-12-21T06:18:44.915Z,0.50
2018-12-21T06:21:13.299Z,0.47
2018-12-21T06:23:41.431Z,1.03
2018-12-21T06:26:11.255Z,1.57
2018-12-21T06:28:38.988Z,0.30
2018-12-21T06:31:06.875Z,0.20
2018-12-21T06:33:34.770Z,0.83
2018-12-21T06:36:02.909Z,0.77
2018-12-21T06:38:31.174Z,0.50
2018-12-21T06:40:59.212Z,1.17
2018-12-21T06:43:27.406Z,0.57
2018-12-21T06:45:57.634Z,0.43
2018-12-21T06:48:26.848Z,0.50
2018-12-21T06:50:55.157Z,0.97
2018-12-21T06:53:22.932Z,0.50
2018-12-21T06:55:50.707Z,0.40
2018-12-21T06:58:21.036Z,0.40
2018-12-21T07:00:48.926Z,0.57
2018-12-21T07:03:17.403Z,0.80
2018-12-21T07:05:48.473Z,0.57
2018-12-21T07:08:16.754Z,2.10
2018-12-21T07:10:44.717Z,0.63
2018-12-21T07:13:14.538Z,1.43
2018-12-21T07:15:43.312Z,0.70
2018-12-21T07:18:11.341Z,0.90
2018-12-21T07:20:39.580Z,1.17
2018-12-21T07:23:07.425Z,0.80
2018-12-21T07:25:35.387Z,1.10
2018-12-21T07:28:03.649Z,0.73
2018-12-21T07:30:32.495Z,0.40
2018-12-21T07:33:00.280Z,1.90
2018-12-21T07:35:28.564Z,0.60
2018-12-21T07:37:56.683Z,0.70
2018-12-21T07:40:24.421Z,0.70
2018-12-21T07:42:52.704Z,1.37
2018-12-21T07:45:20.867Z,0.80
2018-12-21T07:47:48.638Z,0.77
2018-12-21T07:50:18.372Z,0.53
2018-12-21T07:52:46.287Z,0.80
2018-12-21T07:55:14.330Z,0.70
2018-12-21T07:57:43.060Z,0.70
2018-12-21T08:00:11.715Z,0.70
2018-12-21T08:02:40.588Z,0.60
2018-12-21T08:05:09.017Z,0.87
2018-12-21T08:07:44.291Z,1.17
2018-12-21T08:10:19.488Z,1.73
2018-12-21T08:15:34.343Z,2.73
2018-12-21T08:18:12.160Z,1.13
2018-12-21T08:23:19.548Z,0.50
2018-12-21T08:25:48.909Z,0.60
2018-12-21T08:28:17.954Z,2.97
2018-12-21T08:30:49.326Z,0.60
2018-12-21T08:33:19.362Z,0.70
2018-12-21T08:35:47.602Z,0.93
2018-12-21T08:38:21.062Z,0.60
2018-12-21T08:40:49.186Z,0.70
2018-12-21T08:43:17.213Z,0.50
2018-12-21T08:45:45.901Z,0.80
2018-12-21T08:48:16.432Z,0.60
2018-12-21T08:50:52.469Z,0.50
2018-12-21T08:53:26.174Z,1.40
2018-12-21T08:55:55.302Z,1.37
2018-12-21T08:58:24.821Z,0.90
2018-12-21T09:00:58.230Z,0.40
2018-12-21T09:03:29.605Z,0.75
2018-12-21T09:06:01.228Z,0.60
2018-12-21T09:08:35.468Z,0.40
2018-12-21T09:17:16.138Z,0.37
2018-12-21T09:28:14.114Z,0.40
2018-12-21T09:30:49.166Z,0.30
2018-12-21T09:33:20.514Z,0.50
2018-12-21T09:35:54.950Z,0.40
2018-12-21T09:38:34.600Z,1.00
2018-12-21T09:41:11.786Z,0.40
2018-12-21T09:46:35.254Z,0.67
2018-12-21T09:49:03.038Z,1.10
2018-12-21T09:51:33.948Z,1.83
2018-12-21T09:54:09.630Z,1.33
2018-12-21T09:56:36.206Z,1.02
2018-12-21T09:59:04.292Z,1.30
2018-12-21T10:01:32.106Z,1.33
2018-12-21T10:04:05.090Z,0.40
2018-12-21T10:06:36.805Z,0.87
2018-12-21T10:09:16.285Z,0.60
2018-12-21T10:11:46.807Z,1.07
2018-12-21T10:14:20.145Z,2.70
2018-12-21T10:16:49.730Z,1.77
2018-12-21T10:19:23.413Z,0.70
2018-12-21T10:21:51.330Z,0.73
2018-12-21T10:24:19.588Z,1.00
2018-12-21T10:27:04.789Z,0.50
2018-12-21T10:29:33.085Z,0.50
2018-12-21T10:32:04.365Z,1.00
2018-12-21T10:34:32.425Z,5.10
2018-12-21T10:37:01.191Z,0.30
2018-12-21T10:39:35.293Z,0.60
2018-12-21T10:42:05.078Z,0.60
2018-12-21T10:44:35.027Z,0.40
2018-12-21T10:47:14.351Z,0.40
2018-12-21T10:49:43.210Z,0.80
2018-12-21T10:52:12.656Z,0.30
2018-12-21T10:54:44.299Z,0.93
2018-12-21T10:57:15.202Z,0.63
2018-12-21T10:59:43.894Z,2.03
2018-12-21T11:02:13.797Z,2.90
2018-12-21T11:04:44.836Z,1.23
2018-12-21T11:07:15.764Z,1.30
2018-12-21T11:09:47.591Z,1.53
2018-12-21T11:12:17.425Z,6.27
2018-12-21T11:14:47.105Z,4.20
2018-12-21T11:17:15.646Z,0.40
2018-12-21T11:19:43.926Z,1.70
2018-12-21T11:22:12.265Z,2.00
2018-12-21T11:24:40.322Z,2.83
2018-12-21T11:27:08.124Z,1.33
2018-12-21T11:29:36.082Z,0.40
2018-12-21T11:32:08.206Z,0.67
2018-12-21T11:34:39.057Z,0.73
2018-12-21T11:37:08.220Z,0.37
2018-12-21T11:39:37.098Z,2.33
2018-12-21T11:42:05.393Z,0.70
2018-12-21T11:44:35.414Z,0.90
2018-12-21T11:47:14.286Z,1.27
2018-12-21T11:49:43.636Z,1.27
2018-12-21T11:52:13.709Z,1.47
2018-12-21T11:54:44.405Z,0.30
2018-12-21T11:57:15.011Z,0.30
2018-12-21T11:59:45.066Z,2.10
2018-12-21T12:02:19.769Z,0.83
2018-12-21T12:04:46.201Z,1.13
2018-12-21T12:07:13.956Z,0.50
2018-12-21T12:09:41.998Z,1.67
2018-12-21T12:12:10.419Z,3.13
2018-12-21T12:14:38.229Z,0.80
2018-12-21T12:17:06.735Z,0.60
2018-12-21T12:19:34.679Z,5.77
2018-12-21T12:22:03.363Z,0.63
2018-12-21T12:24:35.334Z,0.97
2018-12-21T12:27:03.177Z,0.70
2018-12-21T12:33:04.048Z,0.40
2018-12-21T12:42:16.965Z,0.50
2018-12-21T12:44:45.452Z,0.70
2018-12-21T12:47:16.256Z,0.50
2018-12-21T12:52:51.867Z,0.63
2018-12-21T12:55:20.448Z,0.70
2018-12-21T13:00:57.766Z,1.53
2018-12-21T13:03:54.835Z,1.03
2018-12-21T13:06:25.339Z,0.30
2018-12-21T13:12:01.194Z,2.27
2018-12-21T13:17:37.836Z,1.20
2018-12-21T13:23:14.102Z,0.80
2018-12-21T13:32:09.311Z,0.60
2018-12-21T13:34:37.805Z,0.60
2018-12-21T13:37:43.259Z,0.77
2018-12-21T13:40:11.415Z,0.90
2018-12-21T13:43:00.099Z,0.60
2018-12-21T13:45:27.943Z,0.70
2018-12-21T13:48:26.438Z,1.03
2018-12-21T13:50:54.776Z,1.50
2018-12-21T13:53:58.255Z,0.60
2018-12-21T13:56:26.456Z,0.70
2018-12-21T13:58:55.152Z,0.97
2018-12-21T14:01:29.832Z,0.83
2018-12-21T14:03:59.826Z,1.30
2018-12-21T14:06:28.131Z,1.30
2018-12-21T14:09:26.542Z,0.73
2018-12-21T14:11:55.537Z,1.33
2018-12-21T14:17:31.097Z,0.60
2018-12-21T14:26:45.652Z,0.40
2018-12-21T14:29:14.635Z,4.73
2018-12-21T14:34:52.141Z,2.57
2018-12-21T14:43:35.470Z,1.60
2018-12-21T14:46:03.925Z,0.50
2018-12-21T14:48:31.931Z,1.40
2018-12-21T14:51:02.346Z,1.97
2018-12-21T14:53:33.546Z,2.10
2018-12-21T14:56:04.025Z,1.00
2018-12-21T14:58:34.703Z,2.17
2018-12-21T15:01:07.989Z,3.07
2018-12-21T15:03:36.155Z,1.27
2018-12-21T15:06:07.899Z,3.33
2018-12-21T15:08:40.147Z,4.33
2018-12-21T15:11:08.628Z,3.73
2018-12-21T15:13:36.919Z,1.40
2018-12-21T15:16:05.777Z,1.43
2018-12-21T15:19:01.797Z,3.80
2018-12-21T15:21:30.245Z,3.07
2018-12-21T15:26:33.762Z,2.30
2018-12-21T15:29:01.482Z,2.93
2018-12-21T15:31:29.319Z,2.97
2018-12-21T15:33:58.750Z,2.07
2018-12-21T15:36:28.140Z,2.93
2018-12-21T15:38:57.210Z,2.60
2018-12-21T15:41:29.340Z,4.67
2018-12-21T15:43:57.650Z,3.60
2018-12-21T15:46:26.326Z,4.97
2018-12-21T15:48:56.217Z,1.40
2018-12-21T15:51:25.224Z,2.07
2018-12-21T15:53:54.085Z,2.10
2018-12-21T15:56:22.921Z,3.57
2018-12-21T15:58:51.582Z,1.67
2018-12-21T16:01:20.356Z,3.03
2018-12-21T16:03:51.165Z,4.43
2018-12-21T16:06:27.095Z,2.40
2018-12-21T16:09:08.246Z,2.03
2018-12-21T16:11:37.215Z,2.90
2018-12-21T16:14:05.680Z,9.40
2018-12-21T16:16:34.248Z,2.63
2018-12-21T16:19:02.310Z,1.50
2018-12-21T16:21:30.120Z,2.03
2018-12-21T16:24:06.697Z,4.40
2018-12-21T16:26:29.669Z,4.43
2018-12-21T16:29:01.664Z,3.73
2018-12-21T16:31:30.958Z,5.90
2018-12-21T16:34:03.540Z,4.73
2018-12-21T16:36:31.651Z,2.73
2018-12-21T16:39:00.192Z,2.97
2018-12-21T16:41:33.955Z,5.10
2018-12-21T16:44:02.779Z,8.53
2018-12-21T16:46:31.673Z,7.60
2018-12-21T16:49:02.169Z,3.83
2018-12-21T16:51:35.586Z,4.47
2018-12-21T16:54:04.330Z,6.47
2018-12-21T16:56:34.105Z,5.77
2018-12-21T16:59:03.572Z,4.23
2018-12-21T17:01:31.895Z,3.63
2018-12-21T17:04:00.212Z,4.73
2018-12-21T17:06:28.468Z,7.83
2018-12-21T17:08:56.360Z,6.07
2018-12-21T17:11:25.962Z,5.37
2018-12-21T17:13:56.100Z,5.43
2018-12-21T17:16:54.632Z,6.67
2018-12-21T17:19:23.712Z,4.87
2018-12-21T17:25:00.762Z,7.37
2018-12-21T17:28:03.382Z,9.67
2018-12-21T17:30:32.740Z,5.80
2018-12-21T17:33:36.187Z,7.70
2018-12-21T17:36:04.148Z,7.90
2018-12-21T17:38:59.459Z,6.30
2018-12-21T17:41:27.350Z,7.67
2018-12-21T17:43:56.198Z,8.17
2018-12-21T17:49:31.338Z,3.83
2018-12-21T17:55:09.589Z,8.20
2018-12-21T18:00:47.668Z,9.63
2018-12-21T18:06:24.613Z,7.90
2018-12-21T18:08:53.675Z,5.00
2018-12-21T18:14:29.764Z,8.50
2018-12-21T18:20:10.056Z,8.47
2018-12-21T18:23:12.696Z,6.70
2018-12-21T18:25:40.733Z,13.57
2018-12-21T18:28:36.585Z,7.97
2018-12-21T18:31:08.721Z,5.87
2018-12-21T18:33:46.249Z,9.27
2018-12-21T18:36:15.564Z,7.00
2018-12-21T18:38:47.650Z,8.30
2018-12-21T18:41:50.674Z,6.80
2018-12-21T18:44:18.799Z,11.17
2018-12-21T18:47:17.591Z,11.20
2018-12-21T18:49:46.417Z,7.10
2018-12-21T18:52:39.704Z,5.47
2018-12-21T18:55:10.847Z,9.53
2018-12-21T19:00:48.913Z,8.03
2018-12-21T19:06:23.711Z,7.00
2018-12-21T19:09:19.719Z,12.27
2018-12-21T19:11:52.301Z,9.47
2018-12-21T19:14:23.090Z,8.53
2018-12-21T19:16:51.157Z,7.20
2018-12-21T19:19:19.815Z,7.20
2018-12-21T19:24:56.822Z,8.40
2018-12-21T19:30:31.660Z,9.83
2018-12-21T19:36:07.529Z,10.33
2018-12-21T19:41:42.867Z,10.80
2018-12-21T19:44:38.138Z,7.73
2018-12-21T19:47:07.098Z,12.07
2018-12-21T19:50:03.845Z,9.53
2018-12-21T19:52:32.199Z,10.80
2018-12-21T19:55:01.019Z,12.10
2018-12-21T20:00:36.193Z,9.63
2018-12-21T20:06:11.836Z,12.37
2018-12-21T20:09:07.532Z,12.07
2018-12-21T20:11:35.766Z,11.37
2018-12-21T20:14:26.122Z,12.60
2018-12-21T20:16:55.615Z,13.60
2018-12-21T20:19:58.541Z,11.63
2018-12-21T20:22:26.312Z,12.73
2018-12-21T20:25:23.206Z,11.30
2018-12-21T20:27:51.664Z,12.60
2018-12-21T20:30:27.981Z,12.17
2018-12-21T20:33:38.709Z,10.27
2018-12-21T20:36:08.024Z,10.87
2018-12-21T20:38:36.849Z,10.57
2018-12-21T20:41:09.515Z,16.00
2018-12-21T20:43:37.399Z,9.90
2018-12-21T20:46:06.181Z,10.77
2018-12-21T20:48:34.411Z,14.50
2018-12-21T20:51:02.741Z,14.60
2018-12-21T20:53:30.555Z,13.83
2018-12-21T20:56:01.545Z,15.73
2018-12-21T20:58:30.146Z,12.33
2018-12-21T21:00:58.072Z,19.03
2018-12-21T21:03:25.986Z,13.93
2018-12-21T21:05:57.631Z,13.77
2018-12-21T21:08:25.994Z,15.40
2018-12-21T21:10:55.686Z,8.67
2018-12-21T21:13:25.903Z,14.73
2018-12-21T21:15:55.886Z,12.27
2018-12-21T21:18:24.062Z,8.53
2018-12-21T21:20:53.426Z,18.23
2018-12-21T21:23:21.543Z,13.87
2018-12-21T21:25:49.301Z,15.10
2018-12-21T21:28:18.320Z,16.17
2018-12-21T21:30:49.857Z,10.70
2018-12-21T21:33:18.936Z,16.40
2018-12-21T21:35:48.929Z,14.40
2018-12-21T21:38:17.770Z,21.73
2018-12-21T21:40:47.414Z,11.87
2018-12-21T21:43:15.148Z,15.20
2018-12-21T21:46:12.338Z,11.13
2018-12-21T21:48:42.165Z,15.93
2018-12-21T21:51:11.486Z,12.07
2018-12-21T21:53:39.660Z,10.97
2018-12-21T21:56:08.456Z,10.53
2018-12-21T21:59:11.139Z,11.57
2018-12-21T22:01:38.913Z,15.03
2018-12-21T22:04:06.754Z,11.13
2018-12-21T22:07:12.090Z,15.07
2018-12-21T22:09:40.570Z,10.13
2018-12-21T22:12:13.417Z,14.17
2018-12-21T22:14:41.293Z,14.03
2018-12-21T22:17:11.250Z,11.97
2018-12-21T22:19:39.507Z,12.93
2018-12-21T22:25:17.073Z,12.60
2018-12-21T22:30:59.798Z,19.00
2018-12-21T22:33:32.499Z,14.67
2018-12-21T22:39:07.668Z,15.73
2018-12-21T22:41:35.380Z,17.30
2018-12-21T22:44:03.322Z,13.27
2018-12-21T22:46:31.200Z,20.13
2018-12-21T22:48:58.923Z,16.43
2018-12-21T22:51:28.866Z,14.90
2018-12-21T23:00:14.136Z,10.97
2018-12-21T23:05:56.689Z,17.67
2018-12-21T23:08:25.038Z,18.60
2018-12-21T23:11:20.638Z,18.23
2018-12-21T23:13:48.393Z,13.63
2018-12-21T23:16:17.713Z,15.50
2018-12-21T23:18:46.039Z,15.97
2018-12-21T23:21:16.510Z,17.30
2018-12-21T23:23:45.763Z,17.37
2018-12-21T23:26:13.606Z,13.87
2018-12-21T23:28:41.917Z,18.17
2018-12-21T23:34:17.149Z,14.33
2018-12-21T23:36:45.005Z,14.63
2018-12-21T23:39:14.762Z,13.53
2018-12-21T23:41:42.589Z,16.57
2018-12-21T23:44:20.579Z,14.77
2018-12-21T23:46:48.477Z,21.40
2018-12-21T23:49:16.434Z,13.80
2018-12-21T23:51:44.346Z,17.80
2018-12-21T23:54:12.104Z,15.53
2018-12-21T23:56:40.583Z,10.33
2018-12-21T23:59:15.568Z,16.20
